Airfield :







YOU CAN JOIN US ON...

 
LOGIN :

Register | Disclaimer

   EN    FR    IT 

 









Legend :    VFR   Marginal VFR   IFR   Intensive IFR   Very Intensive IFR
Visi :
Ceiling :
>= 8 km
>= 3000ft
5 to 8 km
1000 to 3000 ft
1500m to 5 km
500 to 1000 ft
800 to 1500m
200 to 500 ft
< 800m
< 200 ft
Symbols :   Thunderstorms  Fog  Heavy snow  Heavy precipitations  Wind > 20 kt






- Airport Elevation : 90 ft
- IATA code : YHU


CYHU - Montréal Saint-Hubert

CURRENT METAR :
  • 230900Z AUTO 24011G17KT 9SM SCT230 21/18 A2971 RMK SLP062 DENSITY ALT 1000FT

EXPIRED METARs :
  • 230834Z AUTO 21008KT 9SM FEW091 20/18 A2970 RMK LTNG DIST E SE SLP059 DENSITY ALT 1000FT
  • 230823Z AUTO 22008KT 9SM VCTS FEW071 SCT090 SCT120 SCT140 20/17 A2970 RMK LTNG DIST E SE SW SLP059 DENSITY ALT 1000FT
  • 230801Z AUTO 27005KT 9SM -TSRA SCT041 BKN055 BKN072 BKN085 21/16 A2970 RMK LTNG DIST ALQDS PRESRR SLP059 DENSITY ALT 1100FT
  • 230748Z AUTO VRB02KT 9SM VCTS BKN044 BKN055 BKN075 21/16 A2968 RMK LTNG DIST ALQDS SLP053 DENSITY ALT 1100FT
  • 230700Z AUTO 18007KT 9SM FEW042 BKN055 OVC084 21/16 A2968 RMK SLP054 DENSITY ALT 1200FT
  • 230600Z AUTO 17005KT 9SM SCT150 BKN180 21/16 A2970 RMK SLP059 DENSITY ALT 1200FT
  • 230510Z AUTO 19008KT 9SM FEW076 OVC120 22/17 A2970 RMK SLP061 DENSITY ALT 1200FT
  • 230500Z AUTO 20008KT 9SM -RA FEW076 OVC120 22/17 A2971 RMK SLP062 DENSITY ALT 1300FT

TAF AMD TAF CYHU
Valid from the 23 at 07:00 until the 24 at 06:00 UTC


230741Z 2307/2406 18007KT P6SM FEW040 BKN080
FM230800 18007KT P6SM FEW040 BKN080
TEMPO 2308/2309 VRB15G25KT 2SM TSRA BR BKN040CB
FM230900 20008KT P6SM FEW060 SCT120
TEMPO 2309/2312 P6SM -SHRA BKN020 BKN060
BECMG 2310/2312 24012G22KT
FM231200 24012G22KT P6SM SKC
BECMG 2318/2320 25018G28KT
BECMG 2400/2402 24010KT RMK FCST BASED ON AUTO OBS. NXT FCST BY 231200Z
CZUL FIR / North America



MET'MAP, your aeronautical weather chart ! - Copyright ORBIFLY December 2007 - Disclaimer

ORBIFLY MET'MAP TEAM :

Programming & Development : Alexandra Zaïnal
Original concept : Baudouin d'Aumeries
Technical & hardware support : Manuel Goepfert
Assistance : Marc-Olivier Méhu




SOURCES & CREDITS :

   NOAA